Time;durP1;ratioP1;P1;durP2;ratioP2;P2;SDS_P1;SDS_P2;PMS_P1;PMS_P2;Temp;Humidity;BMP_temperature;BMP_pressure;BME280_temperature;BME280_humidity;BME280_pressure;Samples;Min_cycle;Max_cycle;Signal;HPM_P1;HPM_P2
2022/08/09 00:00:47;;;;;;;0.50;0.50;;;25.00;45.30;;;;;;5061167;28;20108;-66
2022/08/09 00:03:12;;;;;;;0.50;0.50;;;25.00;45.40;;;;;;5061445;28;20020;-66
2022/08/09 00:05:38;;;;;;;0.40;0.40;;;24.90;45.30;;;;;;5061468;28;20028;-66
2022/08/09 00:08:05;;;;;;;0.52;0.50;;;24.90;45.30;;;;;;5061486;28;20036;-67
2022/08/09 00:10:31;;;;;;;0.77;0.50;;;25.00;45.30;;;;;;5061401;28;20027;-67
2022/08/09 00:12:56;;;;;;;0.50;0.50;;;24.90;45.90;;;;;;5057979;28;20499;-66
2022/08/09 00:15:22;;;;;;;0.50;0.50;;;24.90;45.30;;;;;;5062164;28;20112;-66
2022/08/09 00:17:48;;;;;;;0.50;0.50;;;24.90;45.30;;;;;;5061143;28;20029;-67
2022/08/09 00:20:13;;;;;;;0.50;0.50;;;25.00;45.40;;;;;;5061136;28;20435;-66
2022/08/09 00:22:39;;;;;;;0.50;0.50;;;24.90;45.30;;;;;;5061143;28;20032;-67
2022/08/09 00:25:05;;;;;;;0.60;0.60;;;24.90;45.30;;;;;;5060249;28;20037;-67
2022/08/09 00:27:30;;;;;;;0.57;0.57;;;24.90;45.60;;;;;;5061307;28;20029;-66
2022/08/09 00:29:57;;;;;;;0.50;0.50;;;24.90;45.30;;;;;;5061135;28;20032;-66
2022/08/09 00:32:22;;;;;;;0.57;0.57;;;24.90;45.30;;;;;;5060873;28;20484;-65
2022/08/09 00:34:48;;;;;;;0.60;0.60;;;24.90;45.30;;;;;;5059644;28;20021;-66
2022/08/09 00:37:14;;;;;;;0.50;0.50;;;24.90;45.30;;;;;;5060261;28;20033;-66
2022/08/09 00:39:39;;;;;;;0.50;0.50;;;24.90;45.30;;;;;;5061396;28;20037;-66
2022/08/09 00:42:05;;;;;;;0.50;0.50;;;24.90;45.30;;;;;;5060302;28;20029;-66
2022/08/09 00:44:31;;;;;;;0.50;0.50;;;24.90;45.30;;;;;;5059840;28;20111;-66
2022/08/09 00:46:57;;;;;;;0.57;0.57;;;24.90;45.30;;;;;;5061910;28;20111;-66
2022/08/09 00:49:22;;;;;;;0.50;0.50;;;24.90;45.30;;;;;;5059526;28;20435;-66
2022/08/09 00:51:48;;;;;;;0.47;0.47;;;24.90;45.30;;;;;;5059799;28;20037;-66
2022/08/09 00:54:14;;;;;;;0.40;0.40;;;24.90;45.30;;;;;;5061163;28;20365;-66
2022/08/09 00:56:40;;;;;;;0.50;0.50;;;24.90;45.40;;;;;;5059809;28;20542;-66
2022/08/09 00:59:06;;;;;;;0.40;0.40;;;24.90;45.30;;;;;;5061659;28;20052;-66
2022/08/09 01:01:36;;;;;;;0.60;0.60;;;24.90;45.30;;;;;;5059851;28;20108;-66
2022/08/09 01:04:20;;;;;;;0.55;0.55;;;24.90;45.30;;;;;;5057750;28;20029;-67
2022/08/09 01:06:51;;;;;;;0.40;0.40;;;24.90;45.30;;;;;;5059544;28;20419;-66
2022/08/09 01:09:25;;;;;;;0.50;0.50;;;24.90;45.30;;;;;;5060033;28;20487;-66
2022/08/09 01:12:23;;;;;;;0.40;0.40;;;24.90;45.40;;;;;;5059814;28;20500;-66
2022/08/09 01:14:59;;;;;;;0.50;0.50;;;24.90;45.40;;;;;;5060394;28;20078;-67
2022/08/09 01:17:51;;;;;;;0.60;0.60;;;24.90;45.90;;;;;;5059293;28;20423;-65
2022/08/09 01:20:58;;;;;;;0.57;0.55;;;24.80;45.30;;;;;;5032220;28;20455;-67
2022/08/09 01:23:56;;;;;;;0.50;0.50;;;24.80;45.40;;;;;;5006911;28;20026;-66
2022/08/09 01:26:45;;;;;;;0.50;0.50;;;24.90;45.40;;;;;;5059959;28;20029;-66
2022/08/09 01:29:12;;;;;;;;;;;24.80;45.30;;;;;;5059467;28;20441;-67
2022/08/09 01:31:40;;;;;;;0.57;0.57;;;24.80;45.30;;;;;;5060016;28;19913;-66
2022/08/09 01:34:10;;;;;;;0.73;0.50;;;24.80;45.30;;;;;;5059918;28;20031;-66
2022/08/09 01:36:37;;;;;;;0.52;0.52;;;24.80;45.40;;;;;;5058878;28;20484;-66
2022/08/09 01:39:03;;;;;;;0.50;0.50;;;24.80;45.40;;;;;;5059170;28;20507;-66
2022/08/09 01:41:31;;;;;;;0.73;0.60;;;24.80;45.40;;;;;;5060480;28;20104;-66
2022/08/09 01:44:03;;;;;;;0.60;0.60;;;24.80;45.40;;;;;;5061266;28;20472;-66
2022/08/09 01:46:32;;;;;;;0.50;0.50;;;24.80;45.40;;;;;;5060284;28;20522;-66
2022/08/09 01:49:04;;;;;;;0.50;0.50;;;24.80;45.40;;;;;;5060601;28;20075;-67
2022/08/09 01:51:32;;;;;;;0.50;0.50;;;24.80;45.40;;;;;;5063250;28;20033;-66
2022/08/09 01:54:00;;;;;;;0.47;0.47;;;24.80;45.40;;;;;;5063380;28;20492;-66
2022/08/09 01:56:29;;;;;;;0.50;0.50;;;24.80;45.40;;;;;;5063992;28;20293;-66
2022/08/09 01:58:57;;;;;;;1.27;0.50;;;24.80;45.40;;;;;;5062163;28;20025;-66
2022/08/09 02:01:25;;;;;;;0.52;0.52;;;24.80;45.40;;;;;;5061046;28;20048;-66
2022/08/09 02:03:52;;;;;;;0.55;0.52;;;24.80;46.00;;;;;;5063529;28;20035;-66
2022/08/09 02:07:07;;;;;;;0.55;0.52;;;24.80;45.40;;;;;;5063628;28;20029;-66
2022/08/09 02:09:11;;;;;;;0.50;0.50;;;24.80;45.40;;;;;;5063960;28;20500;-66
2022/08/09 02:11:37;;;;;;;0.70;0.70;;;24.80;45.40;;;;;;5065305;28;20059;-67
2022/08/09 02:14:07;;;;;;;0.63;0.50;;;24.80;45.40;;;;;;5064238;28;20033;-67
2022/08/09 02:16:36;;;;;;;0.50;0.50;;;24.80;46.00;;;;;;5063858;28;20050;-66
2022/08/09 02:19:02;;;;;;;0.50;0.50;;;24.80;45.50;;;;;;5063140;28;20055;-66
2022/08/09 02:21:32;;;;;;;0.40;0.40;;;24.80;45.40;;;;;;5063613;28;20484;-66
2022/08/09 02:23:59;;;;;;;0.50;0.50;;;24.80;45.40;;;;;;5063588;28;20091;-66
2022/08/09 02:26:28;;;;;;;0.40;0.40;;;24.80;46.00;;;;;;5062055;28;20391;-66
2022/08/09 02:28:58;;;;;;;0.50;0.50;;;24.80;45.40;;;;;;5063855;28;20025;-66
2022/08/09 02:31:29;;;;;;;0.50;0.50;;;24.80;45.40;;;;;;5062132;28;20052;-66
2022/08/09 02:34:03;;;;;;;0.57;0.57;;;24.80;45.40;;;;;;5062211;28;20025;-66
2022/08/09 02:36:33;;;;;;;0.40;0.40;;;24.80;45.40;;;;;;5063885;28;20047;-66
2022/08/09 02:39:04;;;;;;;0.52;0.52;;;24.80;45.50;;;;;;5063143;28;20518;-67
2022/08/09 02:41:39;;;;;;;0.50;0.50;;;24.80;45.50;;;;;;5064154;28;20028;-67
2022/08/09 02:44:10;;;;;;;0.50;0.50;;;24.80;45.40;;;;;;5063863;28;20025;-67
2022/08/09 02:46:38;;;;;;;0.50;0.50;;;24.80;45.50;;;;;;5062275;28;20083;-66
2022/08/09 02:49:09;;;;;;;0.50;0.50;;;24.80;45.50;;;;;;5061342;28;20136;-67
2022/08/09 02:51:37;;;;;;;0.50;0.50;;;24.80;45.50;;;;;;5062580;28;20032;-67
2022/08/09 02:54:04;;;;;;;0.50;0.50;;;24.70;45.40;;;;;;5063077;28;20098;-67
2022/08/09 02:56:32;;;;;;;0.40;0.40;;;24.80;45.50;;;;;;5061537;28;20037;-67
2022/08/09 02:59:00;;;;;;;0.60;0.57;;;24.70;45.50;;;;;;5062466;28;20452;-66
2022/08/09 03:01:27;;;;;;;0.45;0.45;;;24.70;45.50;;;;;;5060396;28;20826;-67
2022/08/09 03:03:54;;;;;;;0.45;0.45;;;24.70;45.50;;;;;;5062682;28;20035;-66
2022/08/09 03:06:22;;;;;;;0.45;0.45;;;24.70;45.50;;;;;;5062170;28;20021;-65
2022/08/09 03:08:49;;;;;;;0.43;0.43;;;24.70;45.50;;;;;;5062357;28;20025;-68
2022/08/09 03:11:18;;;;;;;0.45;0.45;;;24.70;45.50;;;;;;5062596;28;20040;-66
2022/08/09 03:13:45;;;;;;;0.50;0.50;;;24.70;45.50;;;;;;5062451;28;20383;-65
2022/08/09 03:16:13;;;;;;;0.40;0.40;;;24.70;45.50;;;;;;5062720;28;20051;-66
2022/08/09 03:18:40;;;;;;;0.60;0.60;;;24.70;45.60;;;;;;5062228;28;20316;-65
2022/08/09 03:21:08;;;;;;;0.40;0.40;;;24.70;45.50;;;;;;5062360;28;20047;-65
2022/08/09 03:23:33;;;;;;;0.43;0.43;;;24.70;45.50;;;;;;5061400;28;20033;-65
2022/08/09 03:26:00;;;;;;;0.50;0.50;;;24.70;45.50;;;;;;5062771;28;20046;-65
2022/08/09 03:28:26;;;;;;;0.50;0.50;;;24.70;45.50;;;;;;5061635;28;20452;-65
2022/08/09 03:30:54;;;;;;;0.60;0.60;;;24.70;45.60;;;;;;5061762;28;20025;-65
2022/08/09 03:33:20;;;;;;;0.50;0.50;;;24.70;45.60;;;;;;5062836;28;20033;-66
2022/08/09 03:35:50;;;;;;;0.50;0.50;;;24.60;45.50;;;;;;5062175;28;20483;-65
2022/08/09 03:38:16;;;;;;;0.95;0.60;;;24.70;45.60;;;;;;5060736;28;20450;-65
2022/08/09 03:40:42;;;;;;;0.50;0.50;;;24.70;45.60;;;;;;5061904;28;20024;-65
2022/08/09 03:43:07;;;;;;;0.60;0.60;;;24.60;45.50;;;;;;5062457;28;20094;-65
2022/08/09 03:45:35;;;;;;;0.40;0.40;;;24.70;45.60;;;;;;5061007;28;20032;-65
2022/08/09 03:48:01;;;;;;;0.50;0.50;;;24.60;45.60;;;;;;5060130;28;20029;-65
2022/08/09 03:50:27;;;;;;;0.60;0.60;;;24.70;45.60;;;;;;5061720;28;20032;-65
2022/08/09 03:52:56;;;;;;;0.70;0.70;;;24.60;45.50;;;;;;5062107;28;20029;-65
2022/08/09 03:55:22;;;;;;;0.50;0.50;;;24.60;46.10;;;;;;5061189;28;20027;-65
2022/08/09 03:57:49;;;;;;;0.50;0.50;;;24.60;45.60;;;;;;5061420;28;20033;-65
2022/08/09 04:00:15;;;;;;;0.40;0.40;;;24.60;45.50;;;;;;5060929;28;20035;-65
2022/08/09 04:02:42;;;;;;;0.50;0.50;;;24.60;45.50;;;;;;5061401;28;20131;-65
2022/08/09 04:05:09;;;;;;;0.50;0.50;;;24.60;45.50;;;;;;5062119;28;20024;-65
2022/08/09 04:07:35;;;;;;;0.43;0.43;;;24.60;45.60;;;;;;5060021;28;20542;-65
2022/08/09 04:10:01;;;;;;;0.57;0.50;;;24.60;45.60;;;;;;5062626;28;20029;-65
2022/08/09 04:12:34;;;;;;;0.40;0.40;;;24.60;45.50;;;;;;5059500;28;20081;-65
2022/08/09 04:15:00;;;;;;;0.80;0.60;;;24.60;45.50;;;;;;5061449;28;20548;-66
2022/08/09 04:17:26;;;;;;;0.63;0.60;;;24.60;45.60;;;;;;5061240;28;20104;-64
2022/08/09 04:19:51;;;;;;;0.50;0.50;;;24.60;45.60;;;;;;5060134;28;20020;-65
2022/08/09 04:22:17;;;;;;;0.57;0.50;;;24.60;45.60;;;;;;5060132;28;20124;-65
2022/08/09 04:24:43;;;;;;;0.40;0.40;;;24.60;45.60;;;;;;5061867;28;20444;-65
2022/08/09 04:27:08;;;;;;;0.70;0.60;;;24.60;45.60;;;;;;5061529;28;20029;-65
2022/08/09 04:29:34;;;;;;;0.52;0.52;;;24.50;45.60;;;;;;5059879;28;20116;-66
2022/08/09 04:32:00;;;;;;;0.43;0.43;;;24.60;45.60;;;;;;5057849;28;20416;-65
2022/08/09 04:34:25;;;;;;;0.50;0.50;;;24.60;45.60;;;;;;5059320;28;20094;-64
2022/08/09 04:36:51;;;;;;;0.50;0.50;;;24.60;45.60;;;;;;5061085;28;20387;-65
2022/08/09 04:39:16;;;;;;;0.45;0.45;;;24.60;45.60;;;;;;5061070;28;20032;-65
2022/08/09 04:41:42;;;;;;;0.70;0.70;;;24.60;45.60;;;;;;5060284;28;20549;-65
2022/08/09 04:44:10;;;;;;;0.50;0.50;;;24.60;45.60;;;;;;5059822;28;20021;-65
2022/08/09 04:46:38;;;;;;;0.50;0.50;;;24.50;45.60;;;;;;5062705;28;20037;-65
2022/08/09 04:49:03;;;;;;;0.40;0.40;;;24.60;45.60;;;;;;5060795;28;20346;-65
2022/08/09 04:51:29;;;;;;;0.43;0.43;;;24.60;45.70;;;;;;5060722;28;20163;-65
2022/08/09 04:53:54;;;;;;;0.60;0.60;;;24.60;45.60;;;;;;5061499;28;20028;-65
2022/08/09 04:56:20;;;;;;;0.43;0.43;;;24.60;45.60;;;;;;5059969;28;20028;-65
2022/08/09 04:58:46;;;;;;;0.50;0.50;;;24.60;45.60;;;;;;5060903;28;20029;-66
2022/08/09 05:01:11;;;;;;;0.50;0.50;;;24.60;46.20;;;;;;5059424;28;20508;-65
2022/08/09 05:03:37;;;;;;;0.60;0.60;;;24.60;45.60;;;;;;5057095;28;20076;-65
2022/08/09 05:06:05;;;;;;;0.43;0.43;;;24.60;45.60;;;;;;5060002;28;20498;-65
2022/08/09 05:08:33;;;;;;;0.60;0.60;;;24.60;45.70;;;;;;5061845;28;20039;-65
2022/08/09 05:10:59;;;;;;;0.40;0.40;;;24.60;45.60;;;;;;5059962;28;20116;-65
2022/08/09 05:13:25;;;;;;;0.50;0.50;;;24.60;45.60;;;;;;5059877;28;20068;-65
2022/08/09 05:15:50;;;;;;;0.52;0.52;;;24.60;45.70;;;;;;5061195;28;20557;-65
2022/08/09 05:18:16;;;;;;;0.50;0.50;;;24.60;45.60;;;;;;5060524;28;20036;-65
2022/08/09 05:20:41;;;;;;;0.47;0.47;;;24.60;45.60;;;;;;5059604;28;20021;-65
2022/08/09 05:23:07;;;;;;;0.50;0.50;;;24.60;45.60;;;;;;5059570;28;20021;-65
2022/08/09 05:25:32;;;;;;;0.45;0.45;;;24.60;45.60;;;;;;5062805;28;20112;-65
2022/08/09 05:27:58;;;;;;;0.50;0.50;;;24.50;45.60;;;;;;5063950;28;20395;-65
2022/08/09 05:30:24;;;;;;;0.63;0.50;;;24.50;45.60;;;;;;5063648;28;20043;-65
2022/08/09 05:32:49;;;;;;;0.50;0.50;;;24.50;45.60;;;;;;5064065;28;20036;-65
2022/08/09 05:35:15;;;;;;;0.40;0.40;;;24.60;45.60;;;;;;5065249;28;20036;-65
2022/08/09 05:37:41;;;;;;;0.40;0.40;;;24.50;45.60;;;;;;5064106;28;20029;-65
2022/08/09 05:40:07;;;;;;;0.40;0.40;;;24.50;45.60;;;;;;5064074;28;20021;-66
2022/08/09 05:42:32;;;;;;;0.50;0.50;;;24.60;45.60;;;;;;5064272;28;20132;-65
2022/08/09 05:44:59;;;;;;;0.50;0.50;;;24.50;45.50;;;;;;5064524;28;20516;-66
2022/08/09 05:47:26;;;;;;;0.50;0.50;;;24.50;45.50;;;;;;5064220;28;20035;-64
2022/08/09 05:49:53;;;;;;;0.52;0.50;;;24.50;45.50;;;;;;5063700;28;20079;-66
2022/08/09 05:52:19;;;;;;;0.60;0.60;;;24.50;45.60;;;;;;5063806;28;20471;-65
2022/08/09 05:54:45;;;;;;;0.60;0.60;;;24.50;45.60;;;;;;5064924;28;20052;-65
2022/08/09 05:57:10;;;;;;;0.55;0.55;;;24.50;45.60;;;;;;5063704;28;20429;-65
2022/08/09 05:59:36;;;;;;;0.93;0.60;;;24.50;45.60;;;;;;5063009;28;20471;-65
2022/08/09 06:02:02;;;;;;;0.55;0.55;;;24.50;45.60;;;;;;5060742;28;20120;-66
2022/08/09 06:04:27;;;;;;;0.45;0.45;;;24.50;45.60;;;;;;5063863;28;20468;-63
2022/08/09 06:06:53;;;;;;;0.52;0.52;;;24.50;45.60;;;;;;5064208;28;20563;-65
2022/08/09 06:09:19;;;;;;;0.50;0.50;;;24.50;45.50;;;;;;5063550;28;20047;-64
2022/08/09 06:11:45;;;;;;;0.60;0.60;;;24.50;45.50;;;;;;5064600;28;20061;-65
2022/08/09 06:14:10;;;;;;;0.50;0.50;;;24.50;45.50;;;;;;5063820;28;20586;-64
2022/08/09 06:16:36;;;;;;;0.50;0.50;;;24.50;45.50;;;;;;5064057;28;20030;-66
2022/08/09 06:19:02;;;;;;;0.65;0.65;;;24.50;45.50;;;;;;5062997;28;20044;-65
2022/08/09 06:21:28;;;;;;;0.50;0.50;;;24.50;45.60;;;;;;5063015;28;20020;-65
2022/08/09 06:23:54;;;;;;;0.50;0.50;;;24.50;45.50;;;;;;5063579;28;20031;-65
2022/08/09 06:26:21;;;;;;;0.60;0.60;;;24.50;45.50;;;;;;5063467;28;20017;-66
2022/08/09 06:28:51;;;;;;;0.50;0.50;;;24.50;45.50;;;;;;5064017;28;20104;-65
2022/08/09 06:31:17;;;;;;;0.50;0.50;;;24.50;45.50;;;;;;5062256;28;20445;-65
2022/08/09 06:33:43;;;;;;;0.50;0.50;;;24.50;45.50;;;;;;5063298;28;20128;-65
2022/08/09 06:36:09;;;;;;;0.57;0.57;;;24.50;46.10;;;;;;5063726;28;20017;-65
2022/08/09 06:38:35;;;;;;;0.50;0.50;;;24.50;45.50;;;;;;5062048;28;20056;-65
2022/08/09 06:41:01;;;;;;;0.50;0.50;;;24.50;45.50;;;;;;5063990;28;20025;-65
2022/08/09 06:43:26;;;;;;;0.60;0.50;;;24.50;45.60;;;;;;5064342;28;20071;-65
2022/08/09 06:45:52;;;;;;;0.47;0.47;;;24.50;45.50;;;;;;5063038;28;20028;-65
2022/08/09 06:48:17;;;;;;;0.50;0.50;;;24.50;45.60;;;;;;5062951;28;20028;-65
2022/08/09 06:50:44;;;;;;;0.60;0.60;;;24.50;45.60;;;;;;5063077;28;20090;-65
2022/08/09 06:53:09;;;;;;;0.50;0.50;;;24.50;45.60;;;;;;5061170;28;20373;-62
2022/08/09 06:55:35;;;;;;;0.50;0.50;;;24.50;45.60;;;;;;5062350;28;20060;-65
2022/08/09 06:58:00;;;;;;;0.57;0.57;;;24.50;45.60;;;;;;5062186;28;20033;-65
2022/08/09 07:00:28;;;;;;;0.70;0.57;;;24.50;45.60;;;;;;5062968;28;20448;-64
2022/08/09 07:02:54;;;;;;;0.50;0.50;;;24.50;45.60;;;;;;5062465;28;20028;-64
2022/08/09 07:05:19;;;;;;;0.50;0.50;;;24.50;45.60;;;;;;5062249;28;20021;-66
2022/08/09 07:07:45;;;;;;;0.50;0.50;;;24.50;45.60;;;;;;5062753;28;20173;-65
2022/08/09 07:10:11;;;;;;;0.40;0.40;;;24.50;45.60;;;;;;5062989;28;20024;-65
2022/08/09 07:12:36;;;;;;;0.50;0.50;;;24.50;45.60;;;;;;5062715;28;20041;-65
2022/08/09 07:15:03;;;;;;;0.68;0.60;;;24.50;45.60;;;;;;5061793;28;20037;-65
2022/08/09 07:17:29;;;;;;;0.50;0.50;;;24.50;45.60;;;;;;5062777;28;20052;-64
2022/08/09 07:19:55;;;;;;;0.57;0.57;;;24.50;45.60;;;;;;5063799;28;20033;-65
2022/08/09 07:22:20;;;;;;;0.50;0.50;;;24.50;45.70;;;;;;5061195;28;20163;-65
2022/08/09 07:24:46;;;;;;;0.50;0.50;;;24.50;45.60;;;;;;5063140;28;20135;-65
2022/08/09 07:27:12;;;;;;;0.60;0.60;;;24.50;45.60;;;;;;5061767;28;20035;-64
2022/08/09 07:29:38;;;;;;;0.40;0.40;;;24.50;45.60;;;;;;5061956;28;20029;-66
2022/08/09 07:32:04;;;;;;;0.47;0.47;;;24.50;45.70;;;;;;5061143;28;20179;-66
2022/08/09 07:34:30;;;;;;;0.50;0.50;;;24.50;45.60;;;;;;5060342;28;20079;-65
2022/08/09 07:36:55;;;;;;;0.60;0.60;;;24.50;45.80;;;;;;5062559;28;20024;-65
2022/08/09 07:39:22;;;;;;;0.40;0.40;;;24.50;46.20;;;;;;5061733;28;20053;-65
2022/08/09 07:41:47;;;;;;;0.50;0.50;;;24.50;45.60;;;;;;5061762;28;20061;-65
2022/08/09 07:44:13;;;;;;;0.40;0.40;;;24.40;45.60;;;;;;5061510;28;20052;-65
2022/08/09 07:46:38;;;;;;;0.57;0.57;;;24.50;45.60;;;;;;5061232;28;20029;-65
2022/08/09 07:49:04;;;;;;;0.50;0.50;;;24.40;45.60;;;;;;5061437;28;20521;-65
2022/08/09 07:51:30;;;;;;;0.50;0.50;;;24.40;45.60;;;;;;5062018;28;20075;-64
2022/08/09 07:53:56;;;;;;;0.60;0.60;;;24.40;45.60;;;;;;5061317;28;20048;-65
2022/08/09 07:56:22;;;;;;;0.60;0.57;;;24.40;45.70;;;;;;5059916;28;20055;-65
2022/08/09 07:58:47;;;;;;;0.50;0.50;;;24.40;45.70;;;;;;5062080;28;20521;-65
2022/08/09 08:01:13;;;;;;;0.45;0.45;;;24.40;45.70;;;;;;5060305;28;20033;-65
2022/08/09 08:03:39;;;;;;;0.47;0.47;;;24.40;45.70;;;;;;5061746;28;20029;-65
2022/08/09 08:06:05;;;;;;;0.57;0.57;;;24.40;45.70;;;;;;5062484;28;20098;-65
2022/08/09 08:08:31;;;;;;;0.50;0.50;;;24.40;45.70;;;;;;5060433;28;20107;-65
2022/08/09 08:10:56;;;;;;;0.50;0.50;;;24.40;45.70;;;;;;5059998;28;20032;-65
2022/08/09 08:13:22;;;;;;;0.43;0.43;;;24.40;45.80;;;;;;5062238;28;20028;-65
2022/08/09 08:15:47;;;;;;;0.55;0.50;;;24.40;45.80;;;;;;5060440;28;20033;-65
2022/08/09 08:18:13;;;;;;;0.50;0.50;;;24.40;45.80;;;;;;5062039;28;20507;-64
2022/08/09 08:20:39;;;;;;;0.40;0.40;;;24.40;45.80;;;;;;5063041;28;20028;-65
2022/08/09 08:23:05;;;;;;;0.50;0.50;;;24.40;45.80;;;;;;5060397;28;20035;-65
2022/08/09 08:25:31;;;;;;;0.50;0.50;;;24.40;45.80;;;;;;5061635;28;20380;-64
2022/08/09 08:27:57;;;;;;;0.52;0.50;;;24.40;45.80;;;;;;5061281;28;20029;-65
2022/08/09 08:30:23;;;;;;;0.60;0.60;;;24.40;45.80;;;;;;5060132;28;20041;-65
2022/08/09 08:32:50;;;;;;;0.50;0.50;;;24.40;45.80;;;;;;5059916;28;20029;-65
2022/08/09 08:35:16;;;;;;;0.90;0.60;;;24.40;45.80;;;;;;5061721;28;20476;-65
2022/08/09 08:37:41;;;;;;;0.52;0.52;;;24.40;45.80;;;;;;5059621;28;20028;-65
2022/08/09 08:40:08;;;;;;;0.50;0.50;;;24.40;45.80;;;;;;5062602;28;20016;-65
2022/08/09 08:42:33;;;;;;;0.50;0.50;;;24.40;45.80;;;;;;5059125;28;20326;-65
2022/08/09 08:45:00;;;;;;;0.60;0.60;;;24.40;45.80;;;;;;5062593;28;20031;-65
2022/08/09 08:47:27;;;;;;;0.60;0.60;;;24.40;45.90;;;;;;5059804;28;20028;-65
2022/08/09 08:49:54;;;;;;;0.60;0.60;;;24.40;45.80;;;;;;5057795;28;20520;-65
2022/08/09 08:52:25;;;;;;;0.50;0.50;;;24.40;45.80;;;;;;5061487;28;20035;-65
2022/08/09 08:54:55;;;;;;;0.50;0.50;;;24.40;45.90;;;;;;5060000;28;20033;-66
2022/08/09 08:57:21;;;;;;;0.40;0.40;;;24.40;45.80;;;;;;5057861;28;20114;-65
2022/08/09 08:59:49;;;;;;;0.85;0.52;;;24.40;45.90;;;;;;5059927;28;20057;-65
2022/08/09 09:02:28;;;;;;;0.50;0.50;;;24.40;45.80;;;;;;5058640;28;20061;-65
2022/08/09 09:04:59;;;;;;;0.50;0.50;;;24.40;45.80;;;;;;5059745;28;20036;-65
2022/08/09 09:07:26;;;;;;;0.60;0.60;;;24.40;45.80;;;;;;5060156;28;20043;-65
2022/08/09 09:09:54;;;;;;;0.60;0.50;;;24.40;45.80;;;;;;5060298;28;20083;-65
2022/08/09 09:12:22;;;;;;;0.60;0.60;;;24.40;45.80;;;;;;5060508;28;20067;-65
2022/08/09 09:14:49;;;;;;;0.50;0.50;;;24.40;45.80;;;;;;5059434;28;20036;-65
2022/08/09 09:17:15;;;;;;;0.73;0.60;;;24.40;45.80;;;;;;5061387;28;20067;-65
2022/08/09 09:19:41;;;;;;;0.50;0.50;;;24.40;45.80;;;;;;5061972;28;20078;-65
2022/08/09 09:22:13;;;;;;;0.50;0.50;;;24.40;45.80;;;;;;5060398;28;20028;-66
2022/08/09 09:24:44;;;;;;;0.50;0.50;;;24.40;45.80;;;;;;5059005;28;20388;-65
2022/08/09 09:27:13;;;;;;;0.75;0.60;;;24.40;45.80;;;;;;5059750;28;20481;-65
2022/08/09 09:29:41;;;;;;;0.60;0.60;;;24.40;45.80;;;;;;5061656;28;20388;-65
2022/08/09 09:32:08;;;;;;;0.50;0.50;;;24.40;45.80;;;;;;5060883;28;20498;-65
2022/08/09 09:34:35;;;;;;;0.50;0.50;;;24.40;45.80;;;;;;5059305;28;20068;-67
2022/08/09 09:37:02;;;;;;;0.57;0.57;;;24.40;45.80;;;;;;5061430;28;20037;-65
2022/08/09 09:39:29;;;;;;;0.60;0.60;;;24.40;45.80;;;;;;5059497;28;20109;-65
2022/08/09 09:41:56;;;;;;;0.40;0.40;;;24.50;45.90;;;;;;5058940;28;20104;-65
2022/08/09 09:44:31;;;;;;;0.50;0.50;;;24.40;45.80;;;;;;5061138;28;20036;-66
2022/08/09 09:47:09;;;;;;;0.50;0.50;;;24.40;45.90;;;;;;5058762;28;20079;-65
2022/08/09 09:49:36;;;;;;;0.60;0.60;;;24.50;45.90;;;;;;5059096;28;20048;-65
2022/08/09 09:52:08;;;;;;;0.57;0.57;;;24.50;45.90;;;;;;5059671;28;20037;-65
2022/08/09 09:54:39;;;;;;;0.55;0.50;;;24.50;45.90;;;;;;5060233;28;20047;-67
2022/08/09 09:57:22;;;;;;;0.50;0.50;;;24.50;45.90;;;;;;5058756;28;20028;-66
2022/08/09 09:59:53;;;;;;;0.50;0.50;;;24.50;45.90;;;;;;5059271;28;20427;-65
2022/08/09 10:02:20;;;;;;;0.50;0.50;;;24.50;45.90;;;;;;5052000;28;20045;-65
2022/08/09 10:05:08;;;;;;;0.57;0.57;;;24.50;45.90;;;;;;5058747;28;20032;-66
2022/08/09 10:07:33;;;;;;;0.50;0.50;;;24.40;45.80;;;;;;5073805;28;20037;-65
2022/08/09 10:10:00;;;;;;;0.63;0.57;;;24.50;45.90;;;;;;5058959;28;20032;-65
2022/08/09 10:12:32;;;;;;;0.60;0.60;;;24.50;45.90;;;;;;5064747;28;20048;-66
2022/08/09 10:15:14;;;;;;;0.60;0.60;;;24.40;45.90;;;;;;5062917;28;20025;-65
2022/08/09 10:17:45;;;;;;;0.60;0.60;;;24.50;45.80;;;;;;5063331;28;20370;-66
2022/08/09 10:20:16;;;;;;;0.57;0.57;;;24.50;45.80;;;;;;5061728;28;20474;-65
2022/08/09 10:22:43;;;;;;;0.73;0.50;;;24.50;45.90;;;;;;5062719;28;20028;-64
2022/08/09 10:25:09;;;;;;;0.60;0.50;;;24.50;45.80;;;;;;5063954;28;20384;-64
2022/08/09 10:27:35;;;;;;;0.50;0.50;;;24.50;45.90;;;;;;5063212;28;20033;-65
2022/08/09 10:30:03;;;;;;;0.77;0.70;;;24.50;45.90;;;;;;5061581;28;20025;-65
2022/08/09 10:32:29;;;;;;;0.60;0.60;;;24.50;45.90;;;;;;5063221;28;20036;-65
2022/08/09 10:34:55;;;;;;;0.50;0.50;;;24.50;45.90;;;;;;5063402;28;20029;-65
2022/08/09 10:37:22;;;;;;;0.45;0.45;;;24.50;45.90;;;;;;5062836;28;20039;-65
2022/08/09 10:39:49;;;;;;;0.50;0.50;;;24.50;45.90;;;;;;5062947;28;20047;-65
2022/08/09 10:42:14;;;;;;;0.43;0.43;;;24.50;45.90;;;;;;5064400;28;20021;-65
2022/08/09 10:44:44;;;;;;;0.50;0.50;;;24.50;45.90;;;;;;5062101;28;20362;-65
2022/08/09 10:47:12;;;;;;;;;;;24.50;45.90;;;;;;5061101;28;20091;-66
2022/08/09 10:49:58;;;;;;;0.60;0.50;;;24.50;45.90;;;;;;5062956;28;19908;-65
2022/08/09 10:52:55;;;;;;;0.47;0.47;;;24.50;45.80;;;;;;5059942;28;20032;-66
2022/08/09 10:55:29;;;;;;;0.50;0.50;;;24.50;45.90;;;;;;5061674;28;20419;-65
2022/08/09 10:57:56;;;;;;;0.50;0.50;;;24.50;45.90;;;;;;5060165;28;20124;-65
2022/08/09 11:00:27;;;;;;;0.52;0.52;;;24.50;45.80;;;;;;5061847;28;20472;-65
2022/08/09 11:02:54;;;;;;;0.50;0.50;;;24.50;45.90;;;;;;5061553;28;20473;-67
2022/08/09 11:05:21;;;;;;;0.70;0.57;;;24.50;45.90;;;;;;5062666;28;20473;-67
2022/08/09 11:07:48;;;;;;;0.50;0.50;;;24.50;45.80;;;;;;5062696;28;20052;-67
2022/08/09 11:10:14;;;;;;;0.82;0.80;;;24.50;45.80;;;;;;5062482;28;20118;-65
2022/08/09 11:12:40;;;;;;;0.40;0.40;;;24.50;45.80;;;;;;5063658;28;20051;-65
2022/08/09 11:15:17;;;;;;;0.50;0.50;;;24.50;45.80;;;;;;5062524;28;20029;-65
2022/08/09 11:17:48;;;;;;;0.52;0.52;;;24.50;45.90;;;;;;5063231;28;20036;-65
2022/08/09 11:20:14;;;;;;;0.50;0.50;;;24.50;45.80;;;;;;5062872;28;20032;-65
2022/08/09 11:22:40;;;;;;;0.60;0.60;;;24.50;45.80;;;;;;5062742;28;20024;-66
2022/08/09 11:25:34;;;;;;;0.50;0.50;;;24.60;45.90;;;;;;5061517;28;20024;-65
2022/08/09 11:28:00;;;;;;;0.60;0.60;;;24.50;45.80;;;;;;5062527;28;20477;-65
2022/08/09 11:30:26;;;;;;;0.40;0.40;;;24.50;45.80;;;;;;5062139;28;20040;-68
2022/08/09 11:33:23;;;;;;;0.50;0.50;;;24.60;45.90;;;;;;5061311;28;20090;-65
2022/08/09 11:35:56;;;;;;;0.57;0.57;;;24.50;45.80;;;;;;5061332;28;20054;-67
2022/08/09 11:38:29;;;;;;;0.60;0.60;;;24.50;45.90;;;;;;5062849;28;20028;-67
2022/08/09 11:40:55;;;;;;;0.50;0.50;;;24.50;46.40;;;;;;5063321;28;20031;-67
2022/08/09 11:43:26;;;;;;;1.48;0.60;;;24.60;45.90;;;;;;5060610;28;20025;-65
2022/08/09 11:45:59;;;;;;;0.60;0.60;;;24.50;45.80;;;;;;5062611;28;20031;-65
2022/08/09 11:48:30;;;;;;;0.63;0.60;;;24.60;45.90;;;;;;5059331;28;20472;-66
2022/08/09 11:50:55;;;;;;;0.50;0.50;;;24.60;45.90;;;;;;5060409;28;20025;-66
2022/08/09 11:53:23;;;;;;;0.50;0.50;;;24.60;45.90;;;;;;5062726;28;20044;-65
2022/08/09 11:55:51;;;;;;;0.60;0.60;;;24.60;45.90;;;;;;5062642;28;20041;-65
2022/08/09 11:58:19;;;;;;;0.40;0.40;;;24.60;45.90;;;;;;5059181;28;20087;-66
2022/08/09 12:00:58;;;;;;;0.57;0.57;;;24.60;45.90;;;;;;5061543;28;20024;-66
2022/08/09 12:03:25;;;;;;;0.60;0.60;;;24.60;45.90;;;;;;5061041;28;20423;-66
2022/08/09 12:05:57;;;;;;;0.50;0.50;;;24.60;45.90;;;;;;5061955;28;20075;-66
2022/08/09 12:08:25;;;;;;;0.65;0.65;;;24.60;45.90;;;;;;5061422;28;20560;-66
2022/08/09 12:10:53;;;;;;;0.70;0.50;;;24.60;45.90;;;;;;5060765;28;20025;-66
2022/08/09 12:13:38;;;;;;;0.50;0.50;;;24.60;45.90;;;;;;5061994;28;20361;-65
2022/08/09 12:16:06;;;;;;;0.70;0.60;;;24.60;46.00;;;;;;5060141;28;20136;-65
2022/08/09 12:18:34;;;;;;;0.60;0.60;;;24.60;45.90;;;;;;5059903;28;20136;-65
2022/08/09 12:21:01;;;;;;;0.60;0.60;;;24.60;45.90;;;;;;5062085;28;20025;-66
2022/08/09 12:23:27;;;;;;;0.60;0.60;;;24.60;45.90;;;;;;5061541;28;20103;-66
2022/08/09 12:25:53;;;;;;;0.50;0.50;;;24.60;46.00;;;;;;5060088;28;20095;-65
2022/08/09 12:28:22;;;;;;;0.60;0.60;;;24.60;45.90;;;;;;5060939;28;20089;-66
2022/08/09 12:30:49;;;;;;;0.63;0.63;;;24.60;45.90;;;;;;5059922;28;20029;-65
2022/08/09 12:33:15;;;;;;;0.52;0.52;;;24.60;45.90;;;;;;5059685;28;20113;-66
2022/08/09 12:35:42;;;;;;;0.68;0.68;;;24.60;45.90;;;;;;5061470;28;20036;-65
2022/08/09 12:38:28;;;;;;;0.50;0.50;;;24.50;45.80;;;;;;5060234;28;20404;-65
2022/08/09 12:40:54;;;;;;;0.43;0.43;;;24.60;45.90;;;;;;5061463;28;20103;-66
2022/08/09 12:43:23;;;;;;;0.60;0.60;;;24.60;45.90;;;;;;5057700;28;20037;-65
2022/08/09 12:45:50;;;;;;;0.50;0.50;;;24.60;45.90;;;;;;5060406;28;20120;-65
2022/08/09 12:48:17;;;;;;;0.57;0.55;;;24.60;45.90;;;;;;5061858;28;20036;-65
2022/08/09 12:50:43;;;;;;;0.50;0.50;;;24.60;45.90;;;;;;5060520;28;20430;-66
2022/08/09 12:53:36;;;;;;;0.50;0.50;;;24.60;45.90;;;;;;5058908;28;20036;-66